Time;durP1;ratioP1;P1;durP2;ratioP2;P2;SDS_P1;SDS_P2;PMS_P1;PMS_P2;Temp;Humidity;BMP_temperature;BMP_pressure;BME280_temperature;BME280_humidity;BME280_pressure;Samples;Min_cycle;Max_cycle;Signal;HPM_P1;HPM_P2
2021/06/19 00:01:54;;;;;;;1.80;1.00;;;24.40;49.90;;;;;;6289804;28;20024;-68
2021/06/19 00:04:55;;;;;;;1.20;0.90;;;24.40;50.60;;;;;;6272270;28;20033;-69
2021/06/19 00:07:56;;;;;;;0.90;0.80;;;24.40;49.90;;;;;;6275149;28;20506;-69
2021/06/19 00:10:56;;;;;;;1.00;0.90;;;24.40;49.90;;;;;;6290448;28;20036;-69
2021/06/19 00:13:57;;;;;;;2.15;1.20;;;24.40;49.90;;;;;;6289587;28;20063;-69
2021/06/19 00:16:57;;;;;;;0.82;0.80;;;24.40;49.90;;;;;;6290359;28;20510;-68
2021/06/19 00:19:58;;;;;;;0.80;0.80;;;24.40;50.00;;;;;;6290413;28;20037;-68
2021/06/19 00:22:59;;;;;;;1.00;0.90;;;24.40;50.00;;;;;;6289474;28;20111;-69
2021/06/19 00:25:59;;;;;;;1.08;0.90;;;24.40;50.00;;;;;;6290288;28;20043;-69
2021/06/19 00:29:00;;;;;;;1.10;1.00;;;24.40;50.00;;;;;;6289439;28;20032;-69
2021/06/19 00:32:00;;;;;;;1.23;1.02;;;24.40;50.00;;;;;;6289487;28;20059;-68
2021/06/19 00:35:01;;;;;;;1.20;1.10;;;24.40;50.00;;;;;;6290113;28;20052;-68
2021/06/19 00:38:02;;;;;;;0.95;0.85;;;24.40;50.00;;;;;;6289259;28;20537;-68
2021/06/19 00:41:02;;;;;;;0.70;0.70;;;24.40;50.10;;;;;;6289793;28;20031;-69
2021/06/19 00:44:05;;;;;;;1.00;0.90;;;24.40;50.10;;;;;;6288960;28;20028;-68
2021/06/19 00:47:05;;;;;;;1.10;1.00;;;24.40;50.10;;;;;;6289602;28;20494;-69
2021/06/19 00:50:08;;;;;;;2.28;1.10;;;24.40;50.10;;;;;;6289377;28;20052;-69
2021/06/19 00:53:08;;;;;;;1.02;0.90;;;24.40;50.10;;;;;;6283688;28;20122;-69
2021/06/19 00:56:09;;;;;;;1.23;0.85;;;24.40;50.10;;;;;;6289580;28;20020;-69
2021/06/19 00:59:10;;;;;;;0.93;0.82;;;24.40;50.10;;;;;;6289430;28;20407;-68
2021/06/19 01:02:11;;;;;;;1.25;1.00;;;24.40;50.10;;;;;;6287862;28;20471;-68
2021/06/19 01:05:13;;;;;;;0.85;0.77;;;24.40;50.20;;;;;;6267741;28;20021;-69
2021/06/19 01:08:13;;;;;;;0.88;0.80;;;24.40;50.20;;;;;;6271563;28;20027;-68
2021/06/19 01:11:14;;;;;;;0.70;0.70;;;24.40;50.20;;;;;;6289342;28;20021;-68
2021/06/19 01:14:14;;;;;;;1.52;0.90;;;24.40;50.20;;;;;;6288822;28;20048;-68
2021/06/19 01:17:16;;;;;;;0.80;0.80;;;24.40;50.20;;;;;;6289825;28;20028;-68
2021/06/19 01:20:19;;;;;;;0.90;0.85;;;24.40;50.20;;;;;;6288635;28;20032;-69
2021/06/19 01:23:19;;;;;;;0.85;0.85;;;24.40;50.20;;;;;;6289050;28;20024;-68
2021/06/19 01:26:23;;;;;;;0.88;0.80;;;24.40;50.20;;;;;;6288864;28;20030;-69
2021/06/19 01:29:23;;;;;;;0.70;0.60;;;24.40;50.20;;;;;;6288620;28;20454;-69
2021/06/19 01:32:29;;;;;;;1.30;0.95;;;24.40;50.20;;;;;;6288907;28;20033;-69
2021/06/19 01:35:30;;;;;;;1.25;1.00;;;24.40;50.20;;;;;;6288631;28;20028;-69
2021/06/19 01:38:31;;;;;;;1.25;1.10;;;24.40;50.20;;;;;;6289014;28;20679;-69
2021/06/19 01:41:32;;;;;;;1.20;1.02;;;24.40;50.20;;;;;;6293340;28;20487;-69
2021/06/19 01:44:33;;;;;;;1.05;0.95;;;24.40;50.20;;;;;;6293426;28;20025;-68
2021/06/19 01:47:34;;;;;;;1.17;1.08;;;24.40;50.30;;;;;;6293651;28;20028;-68
2021/06/19 01:50:35;;;;;;;1.00;0.90;;;24.40;50.30;;;;;;6293286;28;20090;-68
2021/06/19 01:53:40;;;;;;;1.27;1.15;;;24.40;50.30;;;;;;6279721;28;20414;-69
2021/06/19 01:56:40;;;;;;;1.20;1.10;;;24.40;50.30;;;;;;6293174;28;20278;-69
2021/06/19 01:59:41;;;;;;;2.83;1.10;;;24.40;50.30;;;;;;6292737;28;20441;-69
2021/06/19 02:02:42;;;;;;;1.42;1.00;;;24.40;50.30;;;;;;6293598;28;20020;-68
2021/06/19 02:05:42;;;;;;;1.00;0.90;;;24.40;50.30;;;;;;6288578;28;20029;-69
2021/06/19 02:08:54;;;;;;;0.93;0.85;;;24.40;50.30;;;;;;6293084;28;20028;-68
2021/06/19 02:11:56;;;;;;;1.60;0.98;;;24.40;50.40;;;;;;6292700;28;20028;-68
2021/06/19 02:14:56;;;;;;;1.42;1.00;;;24.40;50.30;;;;;;6292556;28;20056;-69
2021/06/19 02:17:57;;;;;;;2.42;1.08;;;24.40;50.40;;;;;;6293068;28;20475;-69
2021/06/19 02:20:58;;;;;;;0.95;0.80;;;24.40;50.40;;;;;;6292656;28;20112;-68
2021/06/19 02:23:58;;;;;;;1.15;0.90;;;24.40;50.40;;;;;;6293206;28;20059;-68
2021/06/19 02:27:13;;;;;;;2.05;1.35;;;24.40;50.40;;;;;;6292543;28;20521;-68
2021/06/19 02:30:14;;;;;;;1.42;1.00;;;24.40;50.40;;;;;;6292413;28;20332;-69
2021/06/19 02:33:16;;;;;;;1.17;0.90;;;24.40;50.40;;;;;;6292274;28;20133;-69
2021/06/19 02:36:16;;;;;;;1.45;1.00;;;24.40;50.50;;;;;;6289283;28;20085;-68
2021/06/19 02:39:18;;;;;;;1.00;0.90;;;24.40;50.40;;;;;;6292570;28;20028;-68
2021/06/19 02:42:19;;;;;;;1.00;0.90;;;24.40;50.50;;;;;;6292321;28;20044;-68
2021/06/19 02:45:20;;;;;;;1.13;1.00;;;24.40;50.50;;;;;;6291744;28;20094;-68
2021/06/19 02:48:20;;;;;;;1.10;1.00;;;24.40;50.50;;;;;;6292090;28;20426;-68
2021/06/19 02:51:21;;;;;;;1.10;0.80;;;24.40;50.50;;;;;;6290960;28;20025;-68
2021/06/19 02:54:21;;;;;;;1.10;0.90;;;24.40;50.50;;;;;;6268897;28;20083;-68
2021/06/19 02:57:22;;;;;;;1.33;1.10;;;24.40;50.50;;;;;;6291588;28;20159;-68
2021/06/19 03:00:23;;;;;;;1.38;0.77;;;24.40;50.50;;;;;;6291809;28;20090;-68
2021/06/19 03:03:24;;;;;;;1.05;0.90;;;24.40;50.50;;;;;;6285787;28;20083;-68
2021/06/19 03:06:25;;;;;;;1.67;0.88;;;24.40;50.50;;;;;;6262944;28;20025;-69
2021/06/19 03:09:25;;;;;;;1.25;1.05;;;24.40;50.50;;;;;;6266949;28;20033;-68
2021/06/19 03:12:27;;;;;;;1.33;1.05;;;24.40;50.60;;;;;;6280015;28;20597;-68
2021/06/19 03:15:28;;;;;;;1.27;1.00;;;24.40;50.60;;;;;;6291193;28;20131;-68
2021/06/19 03:18:29;;;;;;;1.63;1.00;;;24.40;50.50;;;;;;6291136;28;20035;-69
2021/06/19 03:21:29;;;;;;;0.98;0.88;;;24.40;50.60;;;;;;6290737;28;20069;-68
2021/06/19 03:24:36;;;;;;;1.73;0.90;;;24.40;50.60;;;;;;6271833;28;20449;-68
2021/06/19 03:27:36;;;;;;;1.10;0.80;;;24.40;50.60;;;;;;6290908;28;20162;-69
2021/06/19 03:30:40;;;;;;;1.20;1.08;;;24.40;50.60;;;;;;6291092;28;20028;-68
2021/06/19 03:33:40;;;;;;;0.80;0.80;;;24.40;50.60;;;;;;6290485;28;20116;-68
2021/06/19 03:36:41;;;;;;;1.05;0.93;;;24.40;50.60;;;;;;6290749;28;20024;-68
2021/06/19 03:39:41;;;;;;;0.93;0.82;;;24.40;50.70;;;;;;6290689;28;20020;-69
2021/06/19 03:42:43;;;;;;;1.00;0.90;;;24.40;50.70;;;;;;6290496;28;20024;-69
2021/06/19 03:45:43;;;;;;;0.85;0.80;;;24.40;50.70;;;;;;6290625;28;20020;-68
2021/06/19 03:48:44;;;;;;;0.82;0.82;;;24.40;50.70;;;;;;6290426;28;20063;-68
2021/06/19 03:51:46;;;;;;;0.77;0.77;;;24.40;50.70;;;;;;6290208;28;20317;-69
2021/06/19 03:54:48;;;;;;;0.95;0.80;;;24.40;50.70;;;;;;6248617;28;20025;-68
2021/06/19 03:57:48;;;;;;;0.88;0.82;;;24.40;50.70;;;;;;6290191;28;20036;-68
2021/06/19 04:00:49;;;;;;;0.80;0.80;;;24.40;50.70;;;;;;6290418;28;20048;-68
2021/06/19 04:03:50;;;;;;;0.75;0.65;;;24.40;50.70;;;;;;6280449;28;20021;-70
2021/06/19 04:06:50;;;;;;;1.80;0.88;;;24.40;50.70;;;;;;6265206;28;20314;-68
2021/06/19 04:09:52;;;;;;;0.90;0.70;;;24.40;50.70;;;;;;6288484;28;20344;-69
2021/06/19 04:12:53;;;;;;;0.80;0.80;;;24.40;50.70;;;;;;6289708;28;20093;-69
2021/06/19 04:15:54;;;;;;;1.15;0.82;;;24.40;50.70;;;;;;6289755;28;20067;-69
2021/06/19 04:18:54;;;;;;;0.80;0.80;;;24.40;50.80;;;;;;6290015;28;20028;-68
2021/06/19 04:21:55;;;;;;;0.95;0.80;;;24.40;50.80;;;;;;6289660;28;20048;-69
2021/06/19 04:24:55;;;;;;;1.38;0.98;;;24.40;50.80;;;;;;6289775;28;20485;-69
2021/06/19 04:27:57;;;;;;;1.23;0.90;;;24.40;50.80;;;;;;6277872;28;20486;-69
2021/06/19 04:31:00;;;;;;;0.80;0.77;;;24.40;50.80;;;;;;6289417;28;20333;-69
2021/06/19 04:34:01;;;;;;;1.10;0.82;;;24.40;50.80;;;;;;6289320;28;20066;-68
2021/06/19 04:37:02;;;;;;;0.77;0.77;;;24.40;50.80;;;;;;6289546;28;20028;-68
2021/06/19 04:43:17;;;;;;;1.15;0.90;;;24.40;50.80;;;;;;6287641;28;20039;-68
2021/06/19 04:46:17;;;;;;;1.30;0.80;;;24.40;50.90;;;;;;6289336;28;20052;-68
2021/06/19 04:49:18;;;;;;;0.70;0.70;;;24.40;50.90;;;;;;6289845;28;20037;-69
2021/06/19 04:52:20;;;;;;;0.95;0.85;;;24.40;50.80;;;;;;6286360;28;20470;-68
2021/06/19 04:55:20;;;;;;;0.88;0.80;;;24.40;50.90;;;;;;6280466;28;20131;-69
2021/06/19 04:58:24;;;;;;;1.00;0.90;;;24.40;50.90;;;;;;6288991;28;20100;-69
2021/06/19 05:01:24;;;;;;;0.75;0.75;;;24.50;50.90;;;;;;6279151;28;20397;-68
2021/06/19 05:04:25;;;;;;;0.90;0.77;;;24.40;50.90;;;;;;6242452;28;20029;-68
2021/06/19 05:07:26;;;;;;;0.95;0.88;;;24.40;50.90;;;;;;6265654;28;20029;-68
2021/06/19 05:10:27;;;;;;;0.60;0.60;;;24.40;50.90;;;;;;6289697;28;20119;-69
2021/06/19 05:13:28;;;;;;;0.80;0.73;;;24.40;50.90;;;;;;6289423;28;20423;-68
2021/06/19 05:16:28;;;;;;;0.70;0.70;;;24.40;50.90;;;;;;6294098;28;20060;-68
2021/06/19 05:19:29;;;;;;;0.98;0.90;;;24.40;50.90;;;;;;6294031;28;20107;-69
2021/06/19 05:22:29;;;;;;;0.85;0.80;;;24.40;50.90;;;;;;6293949;28;20217;-69
2021/06/19 05:25:30;;;;;;;1.10;1.00;;;24.40;50.90;;;;;;6294074;28;20020;-68
2021/06/19 05:28:30;;;;;;;0.75;0.70;;;24.40;50.90;;;;;;6293711;28;20604;-68
2021/06/19 05:31:31;;;;;;;0.82;0.82;;;24.40;50.90;;;;;;6293356;28;20024;-68
2021/06/19 05:34:32;;;;;;;1.00;0.80;;;24.40;50.10;;;;;;6293611;28;20032;-68
2021/06/19 05:37:32;;;;;;;0.70;0.70;;;24.50;49.20;;;;;;6293583;28;20024;-68
2021/06/19 05:40:33;;;;;;;0.70;0.70;;;24.50;48.40;;;;;;6293248;28;20070;-69
2021/06/19 05:43:34;;;;;;;0.80;0.70;;;24.50;47.70;;;;;;6293483;28;20029;-68
2021/06/19 05:46:36;;;;;;;0.70;0.70;;;24.60;47.50;;;;;;6293094;28;20574;-68
2021/06/19 05:49:37;;;;;;;0.60;0.60;;;24.60;47.20;;;;;;6293656;28;20016;-68
2021/06/19 05:52:37;;;;;;;0.85;0.75;;;24.60;46.90;;;;;;6284969;28;20068;-68
2021/06/19 05:55:38;;;;;;;0.60;0.60;;;24.60;46.70;;;;;;6270851;28;20025;-68
2021/06/19 05:58:39;;;;;;;1.10;0.80;;;24.70;46.70;;;;;;6293131;28;20037;-69
2021/06/19 06:01:39;;;;;;;1.00;0.80;;;24.70;46.50;;;;;;6292763;28;20035;-69
2021/06/19 06:04:40;;;;;;;0.60;0.60;;;24.70;46.60;;;;;;6273194;28;20021;-68
2021/06/19 06:07:40;;;;;;;0.70;0.70;;;24.70;46.40;;;;;;6258283;28;20103;-69
2021/06/19 06:10:41;;;;;;;0.90;0.80;;;24.80;46.30;;;;;;6292800;28;20020;-68
2021/06/19 06:13:42;;;;;;;0.70;0.70;;;24.80;46.20;;;;;;6292272;28;20260;-69
2021/06/19 06:16:42;;;;;;;0.60;0.60;;;24.80;46.20;;;;;;6292422;28;20032;-68
2021/06/19 06:19:43;;;;;;;0.60;0.60;;;24.80;46.20;;;;;;6292506;28;20043;-68
2021/06/19 06:22:44;;;;;;;1.10;0.90;;;24.80;46.00;;;;;;6292128;28;20028;-68
2021/06/19 06:25:44;;;;;;;1.00;0.82;;;24.80;46.00;;;;;;6291767;28;20028;-69
2021/06/19 06:28:45;;;;;;;0.77;0.70;;;24.80;45.90;;;;;;6292291;28;20035;-69
2021/06/19 06:31:46;;;;;;;0.70;0.60;;;24.80;45.80;;;;;;6292336;28;20032;-69
2021/06/19 06:34:46;;;;;;;0.60;0.60;;;24.80;45.70;;;;;;6292086;28;20475;-69
2021/06/19 06:37:47;;;;;;;0.73;0.70;;;24.80;45.70;;;;;;6292022;28;20030;-69
2021/06/19 06:40:47;;;;;;;1.15;0.80;;;24.90;45.70;;;;;;6290807;28;20128;-68
2021/06/19 06:43:48;;;;;;;1.02;0.90;;;24.90;45.70;;;;;;6290498;28;20127;-69
2021/06/19 06:46:48;;;;;;;0.70;0.70;;;24.90;45.60;;;;;;6291953;28;20024;-69
2021/06/19 06:49:49;;;;;;;0.55;0.55;;;24.90;45.50;;;;;;6292200;28;20498;-69
2021/06/19 06:52:49;;;;;;;0.70;0.60;;;24.90;45.50;;;;;;6288750;28;20471;-69
2021/06/19 06:55:50;;;;;;;0.70;0.70;;;24.90;45.40;;;;;;6291569;28;20024;-69
2021/06/19 06:58:50;;;;;;;0.70;0.57;;;24.90;45.40;;;;;;6291443;28;20107;-69
2021/06/19 07:01:51;;;;;;;0.80;0.70;;;24.90;45.30;;;;;;6291608;28;20025;-69
2021/06/19 07:04:52;;;;;;;0.60;0.60;;;24.90;45.30;;;;;;6269571;28;20037;-68
2021/06/19 07:07:52;;;;;;;0.57;0.57;;;24.90;45.30;;;;;;6250376;28;20245;-68
2021/06/19 07:10:53;;;;;;;0.70;0.65;;;24.90;45.20;;;;;;6291087;28;20036;-68
2021/06/19 07:13:53;;;;;;;0.55;0.55;;;24.90;45.10;;;;;;6291170;28;20276;-68
2021/06/19 07:16:54;;;;;;;0.88;0.70;;;24.90;45.20;;;;;;6285287;28;20109;-68
2021/06/19 07:19:54;;;;;;;0.73;0.70;;;24.90;45.00;;;;;;6272898;28;20020;-68
2021/06/19 07:22:55;;;;;;;0.50;0.50;;;24.90;45.00;;;;;;6291189;28;20074;-68
2021/06/19 07:25:56;;;;;;;0.50;0.50;;;24.90;45.00;;;;;;6291447;28;20029;-68
2021/06/19 07:28:58;;;;;;;0.50;0.50;;;25.00;45.10;;;;;;6290939;28;20119;-68
2021/06/19 07:31:59;;;;;;;0.60;0.60;;;25.00;45.00;;;;;;6291003;28;20032;-69
2021/06/19 07:35:00;;;;;;;0.57;0.55;;;25.00;45.10;;;;;;6290822;28;20032;-68
2021/06/19 07:38:00;;;;;;;0.70;0.70;;;25.00;45.00;;;;;;6291612;28;20032;-68
2021/06/19 07:41:01;;;;;;;0.70;0.52;;;25.00;45.00;;;;;;6290573;28;20043;-69
2021/06/19 07:44:01;;;;;;;0.50;0.50;;;25.00;45.60;;;;;;6290531;28;20047;-69
2021/06/19 07:47:03;;;;;;;0.50;0.50;;;25.00;44.80;;;;;;6269770;28;20031;-69
2021/06/19 07:50:05;;;;;;;0.63;0.63;;;25.00;44.70;;;;;;6290690;28;20028;-68
2021/06/19 07:53:06;;;;;;;0.73;0.40;;;25.00;44.70;;;;;;6273557;28;20485;-68
2021/06/19 07:56:06;;;;;;;0.60;0.60;;;25.00;44.70;;;;;;6285269;28;20040;-69
2021/06/19 07:59:07;;;;;;;0.57;0.57;;;25.00;44.70;;;;;;6290584;28;20024;-68
2021/06/19 08:02:08;;;;;;;0.60;0.60;;;25.00;44.60;;;;;;6290634;28;20421;-69
2021/06/19 08:05:10;;;;;;;0.40;0.40;;;25.00;44.60;;;;;;6283551;28;20031;-68
2021/06/19 08:08:10;;;;;;;0.70;0.70;;;25.00;44.60;;;;;;6290699;28;20475;-68
2021/06/19 08:11:11;;;;;;;0.50;0.50;;;25.00;44.90;;;;;;6289775;28;20381;-68
2021/06/19 08:14:13;;;;;;;0.45;0.45;;;24.90;45.30;;;;;;6289923;28;20064;-68
2021/06/19 08:17:19;;;;;;;0.40;0.40;;;24.80;45.70;;;;;;6289927;28;20440;-68
2021/06/19 08:20:20;;;;;;;0.43;0.43;;;24.80;46.00;;;;;;6289973;28;20024;-69
2021/06/19 08:23:21;;;;;;;1.08;0.70;;;24.80;46.40;;;;;;6289904;28;20047;-68
2021/06/19 08:26:21;;;;;;;0.50;0.50;;;24.80;46.70;;;;;;6290069;28;20467;-68
2021/06/19 08:29:22;;;;;;;0.40;0.40;;;24.70;46.80;;;;;;6289476;28;20039;-68
2021/06/19 08:32:22;;;;;;;0.60;0.60;;;24.70;47.00;;;;;;6289789;28;20051;-69
2021/06/19 08:35:23;;;;;;;0.60;0.60;;;24.70;47.20;;;;;;6289571;28;20482;-69
2021/06/19 08:38:24;;;;;;;0.60;0.60;;;24.70;47.40;;;;;;6290195;28;20032;-69
2021/06/19 08:41:24;;;;;;;0.50;0.50;;;24.70;47.50;;;;;;6289596;28;20021;-69
2021/06/19 08:44:27;;;;;;;0.60;0.50;;;24.70;47.60;;;;;;6289805;28;20130;-69
2021/06/19 08:47:34;;;;;;;0.50;0.50;;;24.70;47.70;;;;;;6288763;28;20017;-68
2021/06/19 08:50:37;;;;;;;0.50;0.50;;;24.70;47.90;;;;;;6289671;28;20029;-68
2021/06/19 08:53:37;;;;;;;0.55;0.55;;;24.70;48.00;;;;;;6279137;28;20043;-68
2021/06/19 08:56:42;;;;;;;0.63;0.52;;;24.70;48.00;;;;;;6289437;28;20024;-69
2021/06/19 08:59:48;;;;;;;0.50;0.50;;;24.70;48.10;;;;;;6289394;28;20039;-68
2021/06/19 09:02:51;;;;;;;0.70;0.60;;;24.70;48.20;;;;;;6288900;28;20334;-69
2021/06/19 09:05:53;;;;;;;0.55;0.52;;;24.70;48.30;;;;;;6273938;28;20421;-69
2021/06/19 09:09:05;;;;;;;0.70;0.60;;;24.60;48.20;;;;;;6289507;28;20031;-69
2021/06/19 09:12:06;;;;;;;0.65;0.50;;;24.60;48.30;;;;;;6289212;28;20075;-69
2021/06/19 09:15:16;;;;;;;0.55;0.55;;;24.60;48.40;;;;;;6288831;28;20079;-69
2021/06/19 09:18:18;;;;;;;0.47;0.47;;;24.60;48.40;;;;;;6289478;28;20017;-69
2021/06/19 09:21:27;;;;;;;0.50;0.50;;;24.60;48.50;;;;;;6283222;28;20176;-68
2021/06/19 09:25:01;;;;;;;0.35;0.30;;;24.60;48.50;;;;;;6289416;28;20016;-69
2021/06/19 09:28:05;;;;;;;0.60;0.50;;;24.60;48.60;;;;;;6289112;28;20479;-68
2021/06/19 09:31:06;;;;;;;0.70;0.50;;;24.60;48.60;;;;;;6261612;28;20045;-68
2021/06/19 09:34:32;;;;;;;0.50;0.50;;;24.60;48.70;;;;;;6257278;28;20037;-69
2021/06/19 09:37:38;;;;;;;0.60;0.50;;;24.60;48.70;;;;;;6272239;28;20399;-68
2021/06/19 09:40:43;;;;;;;0.68;0.68;;;24.70;49.00;;;;;;6276830;28;20029;-69
2021/06/19 09:43:45;;;;;;;0.50;0.50;;;24.70;49.10;;;;;;6287127;28;20032;-68
2021/06/19 09:46:56;;;;;;;0.50;0.50;;;24.70;49.40;;;;;;6277787;28;20021;-69
2021/06/19 09:50:07;;;;;;;1.98;0.50;;;24.70;49.30;;;;;;6267479;28;20073;-69
2021/06/19 09:53:12;;;;;;;1.55;0.70;;;24.70;49.50;;;;;;6273195;28;20044;-69
2021/06/19 09:56:14;;;;;;;0.68;0.68;;;24.70;49.50;;;;;;6277520;28;20128;-69
2021/06/19 09:59:26;;;;;;;1.50;0.68;;;24.70;49.70;;;;;;6282575;28;20099;-68
2021/06/19 10:02:27;;;;;;;0.77;0.75;;;24.70;49.70;;;;;;6288788;28;20036;-69
2021/06/19 10:05:27;;;;;;;1.25;0.70;;;24.70;49.70;;;;;;6274630;28;20479;-69
2021/06/19 10:08:28;;;;;;;0.93;0.75;;;24.70;49.70;;;;;;6287129;28;20079;-69
2021/06/19 10:11:29;;;;;;;0.80;0.63;;;24.70;49.70;;;;;;6276184;28;20063;-69
2021/06/19 10:14:31;;;;;;;1.30;0.50;;;24.60;49.60;;;;;;6279809;28;20061;-69
2021/06/19 10:17:37;;;;;;;0.80;0.80;;;24.60;49.70;;;;;;6285495;28;20065;-69
2021/06/19 10:20:38;;;;;;;2.05;0.80;;;24.60;49.60;;;;;;6277329;28;20028;-68
2021/06/19 10:23:39;;;;;;;0.93;0.77;;;24.60;49.70;;;;;;6279904;28;20046;-69
2021/06/19 10:26:40;;;;;;;1.23;0.80;;;24.60;49.70;;;;;;6275478;28;20042;-68
2021/06/19 10:29:41;;;;;;;0.98;0.88;;;24.60;49.70;;;;;;6269275;28;20071;-69
2021/06/19 10:32:48;;;;;;;1.10;0.90;;;24.60;49.80;;;;;;6285025;28;20119;-69
2021/06/19 10:35:51;;;;;;;0.98;0.65;;;24.60;49.80;;;;;;6275507;28;20226;-68
2021/06/19 10:38:57;;;;;;;1.30;0.80;;;24.70;49.90;;;;;;6290132;28;20037;-68
2021/06/19 10:41:58;;;;;;;0.95;0.90;;;24.60;49.90;;;;;;6289532;28;20198;-68
2021/06/19 10:44:59;;;;;;;1.00;0.80;;;24.60;49.90;;;;;;6290591;28;20478;-69
2021/06/19 10:48:08;;;;;;;1.13;0.80;;;24.60;49.90;;;;;;6286155;28;20033;-68
2021/06/19 10:51:38;;;;;;;1.77;0.80;;;24.60;49.90;;;;;;6257619;28;20028;-68
2021/06/19 10:54:45;;;;;;;0.70;0.70;;;24.60;49.90;;;;;;6236597;28;20052;-68
2021/06/19 10:57:49;;;;;;;0.77;0.70;;;24.60;50.00;;;;;;6279391;28;20064;-69
2021/06/19 11:00:54;;;;;;;1.35;0.93;;;24.60;50.00;;;;;;6275422;28;20048;-69
2021/06/19 11:03:57;;;;;;;1.58;0.95;;;24.60;50.00;;;;;;6272335;28;20025;-68
2021/06/19 11:06:57;;;;;;;1.17;0.93;;;24.60;50.00;;;;;;6278884;28;20486;-68
2021/06/19 11:09:58;;;;;;;4.50;0.85;;;24.60;50.00;;;;;;6269690;28;20025;-68
2021/06/19 11:13:39;;;;;;;0.80;0.80;;;24.60;50.00;;;;;;6273296;28;20033;-67
2021/06/19 11:16:41;;;;;;;1.00;0.90;;;24.60;50.00;;;;;;6277405;28;20083;-69
2021/06/19 11:19:48;;;;;;;0.90;0.80;;;24.60;50.00;;;;;;6287646;28;20491;-69
2021/06/19 11:23:03;;;;;;;1.00;0.73;;;24.60;50.00;;;;;;6279181;28;20076;-68
2021/06/19 11:26:08;;;;;;;0.75;0.75;;;24.60;50.70;;;;;;6283546;28;20464;-69
2021/06/19 11:29:34;;;;;;;0.70;0.70;;;24.50;50.00;;;;;;6282574;28;20064;-68
2021/06/19 11:32:34;;;;;;;1.20;0.73;;;24.50;50.00;;;;;;6287885;28;20031;-68
2021/06/19 11:35:35;;;;;;;1.38;0.90;;;24.60;50.10;;;;;;6282552;28;20025;-68
2021/06/19 11:38:47;;;;;;;1.23;0.68;;;24.50;50.00;;;;;;6281665;28;20031;-68
2021/06/19 11:41:49;;;;;;;1.13;0.90;;;24.50;50.00;;;;;;6275577;28;20338;-69
2021/06/19 11:44:49;;;;;;;0.70;0.70;;;24.50;50.10;;;;;;6289264;28;20032;-68
2021/06/19 11:48:06;;;;;;;0.82;0.82;;;24.50;50.10;;;;;;6288044;28;20307;-68
2021/06/19 11:51:07;;;;;;;1.52;1.00;;;24.50;50.10;;;;;;6263692;28;20041;-67
2021/06/19 11:54:14;;;;;;;1.33;0.82;;;24.50;50.10;;;;;;6270325;28;20029;-69
2021/06/19 11:57:28;;;;;;;1.05;0.80;;;24.50;50.10;;;;;;6276247;28;20044;-69
2021/06/19 12:00:29;;;;;;;2.07;1.00;;;24.50;50.10;;;;;;6285849;28;20392;-68
2021/06/19 12:03:29;;;;;;;1.02;0.88;;;24.50;50.20;;;;;;6274373;28;20121;-69
2021/06/19 12:06:44;;;;;;;2.30;0.90;;;24.50;50.20;;;;;;6287087;28;20074;-69
2021/06/19 12:09:51;;;;;;;1.10;0.70;;;24.50;50.20;;;;;;6287748;28;20033;-68
2021/06/19 12:13:07;;;;;;;2.50;0.80;;;24.50;50.20;;;;;;6276282;28;20040;-68
2021/06/19 12:16:09;;;;;;;2.47;1.00;;;24.50;50.20;;;;;;6282405;28;20048;-68
2021/06/19 12:19:10;;;;;;;1.48;0.82;;;24.50;50.30;;;;;;6278661;28;20049;-69
2021/06/19 12:22:12;;;;;;;3.08;1.00;;;24.50;50.40;;;;;;6275945;28;20169;-68
2021/06/19 12:25:26;;;;;;;3.25;0.98;;;24.50;50.80;;;;;;6276015;28;20047;-69
2021/06/19 12:28:27;;;;;;;2.80;1.10;;;24.50;50.60;;;;;;6266651;28;20032;-69
2021/06/19 12:31:28;;;;;;;6.43;1.15;;;24.50;50.60;;;;;;6275670;28;20058;-68
2021/06/19 12:34:29;;;;;;;3.05;1.23;;;24.50;50.60;;;;;;6272473;28;20515;-68
2021/06/19 12:37:32;;;;;;;3.53;1.10;;;24.50;50.60;;;;;;6253373;28;20025;-68
2021/06/19 12:40:35;;;;;;;6.75;2.05;;;24.50;50.60;;;;;;6284515;28;20071;-69
2021/06/19 12:43:49;;;;;;;2.75;1.10;;;24.50;50.60;;;;;;6274611;28;20359;-69
2021/06/19 12:47:18;;;;;;;3.20;0.90;;;24.50;50.60;;;;;;6282683;28;20052;-69
2021/06/19 12:50:39;;;;;;;1.48;1.00;;;24.50;50.60;;;;;;6282624;28;20036;-68
2021/06/19 12:53:39;;;;;;;1.77;1.13;;;24.50;50.60;;;;;;6273539;28;20036;-68
2021/06/19 12:57:03;;;;;;;7.80;1.08;;;24.50;50.70;;;;;;6285249;28;20051;-68
2021/06/19 13:00:10;;;;;;;2.53;1.13;;;24.40;50.60;;;;;;6279161;28;20336;-69
2021/06/19 13:03:12;;;;;;;3.58;0.85;;;24.50;50.70;;;;;;6270701;28;20049;-68
2021/06/19 13:06:28;;;;;;;0.95;0.80;;;24.40;50.70;;;;;;6258818;28;20025;-68
2021/06/19 13:09:50;;;;;;;1.42;0.90;;;24.40;50.70;;;;;;6258320;28;20608;-69
2021/06/19 13:12:52;;;;;;;2.72;1.23;;;24.40;50.70;;;;;;6285912;28;20033;-68
2021/06/19 13:15:59;;;;;;;3.90;0.90;;;24.50;50.70;;;;;;6283589;28;20045;-69
2021/06/19 13:19:03;;;;;;;2.40;1.23;;;24.40;50.70;;;;;;6272465;28;20620;-68
2021/06/19 13:22:04;;;;;;;5.60;1.35;;;24.40;50.70;;;;;;6285532;28;20391;-68
2021/06/19 13:25:05;;;;;;;5.05;1.52;;;24.40;50.70;;;;;;6268255;28;20025;-68
2021/06/19 13:28:05;;;;;;;3.50;1.10;;;24.40;50.70;;;;;;6281925;28;20048;-68
2021/06/19 13:31:19;;;;;;;3.90;1.23;;;24.40;50.70;;;;;;6278006;28;20021;-68
2021/06/19 13:34:22;;;;;;;2.95;0.93;;;24.40;50.70;;;;;;6275680;28;20043;-68
2021/06/19 13:37:35;;;;;;;3.10;1.02;;;24.40;50.80;;;;;;6290532;28;20025;-69
2021/06/19 13:40:36;;;;;;;2.97;1.20;;;24.50;50.90;;;;;;6276762;28;20064;-68
2021/06/19 13:43:37;;;;;;;3.72;1.30;;;24.40;50.80;;;;;;6259714;28;20094;-69
2021/06/19 13:46:38;;;;;;;1.73;0.90;;;24.40;50.80;;;;;;6281560;28;20028;-68
2021/06/19 13:49:39;;;;;;;2.97;1.10;;;24.40;50.80;;;;;;6280244;28;20032;-68
2021/06/19 13:52:39;;;;;;;2.90;0.98;;;24.40;50.80;;;;;;6283043;28;20458;-69
2021/06/19 13:55:40;;;;;;;1.88;0.95;;;24.40;50.80;;;;;;6263966;28;20027;-68
2021/06/19 13:58:41;;;;;;;3.95;0.95;;;24.40;50.90;;;;;;6285943;28;20064;-68
2021/06/19 14:01:42;;;;;;;3.60;1.00;;;24.40;50.90;;;;;;6283377;28;20048;-69
2021/06/19 14:04:42;;;;;;;2.90;1.20;;;24.40;50.90;;;;;;6273857;28;20025;-68
2021/06/19 14:07:43;;;;;;;2.47;0.90;;;24.40;50.90;;;;;;6289253;28;20050;-69
2021/06/19 14:10:44;;;;;;;4.05;1.08;;;24.40;50.90;;;;;;6278269;28;20296;-68
2021/06/19 14:13:45;;;;;;;3.20;1.17;;;24.40;50.90;;;;;;6287053;28;20052;-68
2021/06/19 14:16:45;;;;;;;2.55;1.05;;;24.40;50.90;;;;;;6282066;28;20547;-68
2021/06/19 14:19:46;;;;;;;2.10;0.88;;;24.40;51.00;;;;;;6277919;28;20040;-68
2021/06/19 14:22:46;;;;;;;3.28;1.20;;;24.40;51.00;;;;;;6289017;28;20074;-68
2021/06/19 14:25:47;;;;;;;1.45;0.98;;;24.40;51.00;;;;;;6276330;28;20514;-68
2021/06/19 14:28:48;;;;;;;2.50;1.00;;;24.40;51.00;;;;;;6288954;28;20036;-68
2021/06/19 14:31:48;;;;;;;1.98;1.17;;;24.40;51.00;;;;;;6277375;28;20097;-67
2021/06/19 14:34:49;;;;;;;2.30;1.20;;;24.40;51.00;;;;;;6272382;28;20046;-68
2021/06/19 14:37:50;;;;;;;2.45;0.90;;;24.40;51.00;;;;;;6285305;28;20123;-68
2021/06/19 14:40:50;;;;;;;2.30;1.05;;;24.40;51.00;;;;;;6277879;28;20025;-68
2021/06/19 14:43:51;;;;;;;1.85;0.95;;;24.40;51.10;;;;;;6269402;28;20373;-69
2021/06/19 14:46:52;;;;;;;1.58;1.00;;;24.40;51.10;;;;;;6266169;28;20052;-69
2021/06/19 14:49:52;;;;;;;1.05;0.95;;;24.40;51.10;;;;;;6275630;28;20025;-68
2021/06/19 14:52:53;;;;;;;1.05;0.90;;;24.40;51.10;;;;;;6268928;28;20103;-68
2021/06/19 14:55:54;;;;;;;1.10;1.00;;;24.40;51.20;;;;;;6263839;28;20071;-68
2021/06/19 14:58:55;;;;;;;1.15;0.75;;;24.40;51.10;;;;;;6288922;28;20035;-68
2021/06/19 15:01:55;;;;;;;2.03;1.10;;;24.40;51.10;;;;;;6277065;28;20017;-71
2021/06/19 15:04:56;;;;;;;2.28;0.98;;;24.40;51.20;;;;;;6270213;28;20070;-69
2021/06/19 15:07:56;;;;;;;1.77;1.13;;;24.40;51.20;;;;;;6277461;28;20037;-68
2021/06/19 15:10:58;;;;;;;3.33;1.30;;;24.40;51.20;;;;;;6254216;28;20025;-69
2021/06/19 15:13:59;;;;;;;1.55;1.10;;;24.40;51.20;;;;;;6287645;28;20363;-68
2021/06/19 15:16:59;;;;;;;1.92;0.85;;;24.40;51.20;;;;;;6266076;28;20043;-69
2021/06/19 15:20:00;;;;;;;1.30;1.10;;;24.40;51.20;;;;;;6284125;28;20028;-69
2021/06/19 15:23:01;;;;;;;1.90;1.00;;;24.40;51.20;;;;;;6279576;28;20023;-69
2021/06/19 15:26:02;;;;;;;3.38;1.42;;;24.40;51.20;;;;;;6262823;28;20372;-68
2021/06/19 15:29:03;;;;;;;2.60;1.38;;;24.40;51.30;;;;;;6279142;28;20398;-69
2021/06/19 15:32:04;;;;;;;2.78;1.48;;;24.40;51.20;;;;;;6283683;28;20032;-68
2021/06/19 15:35:07;;;;;;;3.85;2.38;;;24.40;51.20;;;;;;6286892;28;20063;-68
2021/06/19 15:38:08;;;;;;;2.30;1.60;;;24.40;51.30;;;;;;6278979;28;20021;-68
2021/06/19 15:41:08;;;;;;;4.72;1.70;;;24.40;51.30;;;;;;6279069;28;20139;-68
2021/06/19 15:44:09;;;;;;;5.25;1.92;;;24.40;51.30;;;;;;6284906;28;20383;-68
2021/06/19 15:47:10;;;;;;;3.15;1.65;;;24.40;51.30;;;;;;6287810;28;20025;-68
2021/06/19 15:50:11;;;;;;;7.72;2.70;;;24.30;51.20;;;;;;6285922;28;20327;-68
2021/06/19 15:53:13;;;;;;;5.75;2.20;;;24.30;51.20;;;;;;6269187;28;20032;-68
2021/06/19 15:56:13;;;;;;;7.43;3.38;;;24.40;51.30;;;;;;6280165;28;20036;-68